Time;durP1;ratioP1;P1;durP2;ratioP2;P2;SDS_P1;SDS_P2;PMS_P1;PMS_P2;Temp;Humidity;BMP_temperature;BMP_pressure;BME280_temperature;BME280_humidity;BME280_pressure;Samples;Min_cycle;Max_cycle;Signal;HPM_P1;HPM_P2
2024/02/13 00:02:22;;;;;;;4.67;2.10;;;5.80;99.90;;;;;;4978213;28;20900;-71
2024/02/13 00:04:49;;;;;;;3.10;2.80;;;5.70;99.90;;;;;;4974913;28;20473;-71
2024/02/13 00:07:16;;;;;;;4.63;2.70;;;5.70;99.90;;;;;;4971538;28;20492;-71
2024/02/13 00:09:43;;;;;;;7.80;3.80;;;5.70;99.90;;;;;;4971148;28;20465;-71
2024/02/13 00:12:11;;;;;;;4.93;2.90;;;5.50;99.90;;;;;;4976305;28;20435;-72
2024/02/13 00:14:37;;;;;;;4.50;3.07;;;5.60;99.90;;;;;;4978700;28;20458;-71
2024/02/13 00:17:06;;;;;;;3.73;2.50;;;5.50;99.90;;;;;;4971703;28;20483;-70
2024/02/13 00:19:32;;;;;;;3.93;2.93;;;5.40;99.90;;;;;;4973899;28;20444;-71
2024/02/13 00:21:59;;;;;;;4.97;4.03;;;5.40;99.90;;;;;;4969143;28;20455;-72
2024/02/13 00:24:26;;;;;;;4.40;3.00;;;5.40;99.90;;;;;;4975721;28;20528;-72
2024/02/13 00:26:52;;;;;;;11.70;2.77;;;5.30;99.90;;;;;;4968424;28;21015;-71
2024/02/13 00:29:19;;;;;;;4.27;3.87;;;5.30;99.90;;;;;;4982353;28;20466;-71
2024/02/13 00:31:46;;;;;;;5.97;4.03;;;5.30;99.90;;;;;;4977118;28;20517;-71
2024/02/13 00:34:16;;;;;;;9.47;3.77;;;5.40;99.90;;;;;;4981873;28;21031;-71
2024/02/13 00:36:44;;;;;;;5.13;3.57;;;5.30;99.90;;;;;;4972686;28;21084;-71
2024/02/13 00:39:11;;;;;;;6.10;3.83;;;5.30;99.90;;;;;;4977311;28;20880;-71
2024/02/13 00:41:38;;;;;;;5.43;3.20;;;5.20;99.90;;;;;;4972663;28;20501;-70
2024/02/13 00:44:05;;;;;;;3.83;2.73;;;5.20;99.90;;;;;;4987788;28;20466;-70
2024/02/13 00:46:31;;;;;;;7.87;3.57;;;5.10;99.90;;;;;;4987423;28;20564;-72
2024/02/13 00:49:00;;;;;;;5.03;2.90;;;5.10;99.90;;;;;;4978708;28;20476;-71
2024/02/13 00:51:28;;;;;;;8.53;3.17;;;5.10;99.90;;;;;;4978098;28;21143;-71
2024/02/13 00:53:54;;;;;;;8.77;3.03;;;5.20;99.90;;;;;;4984341;28;20457;-71
2024/02/13 00:56:21;;;;;;;4.67;2.80;;;5.30;99.90;;;;;;4982266;28;20569;-71
2024/02/13 00:58:48;;;;;;;4.80;3.00;;;5.40;99.90;;;;;;4981602;28;20489;-71
2024/02/13 01:01:15;;;;;;;11.30;3.60;;;5.50;99.90;;;;;;4985285;28;20486;-71
2024/02/13 01:03:42;;;;;;;4.83;4.43;;;5.40;99.90;;;;;;4983204;28;20475;-71
2024/02/13 01:06:09;;;;;;;6.97;3.33;;;5.40;99.90;;;;;;4984092;28;20459;-71
2024/02/13 01:08:37;;;;;;;3.37;2.70;;;5.50;99.90;;;;;;4976313;28;20470;-71
2024/02/13 01:11:04;;;;;;;10.50;4.53;;;5.50;99.90;;;;;;4977512;28;20829;-71
2024/02/13 01:13:31;;;;;;;7.50;3.70;;;5.70;99.90;;;;;;4978218;28;20832;-71
2024/02/13 01:15:58;;;;;;;5.90;3.60;;;5.80;99.90;;;;;;4978464;28;21004;-71
2024/02/13 01:18:25;;;;;;;8.20;4.23;;;5.80;99.90;;;;;;4979032;28;20466;-71
2024/02/13 01:20:54;;;;;;;10.90;4.17;;;5.80;99.90;;;;;;4971783;28;20469;-71
2024/02/13 01:23:21;;;;;;;7.97;5.73;;;5.90;99.90;;;;;;4975217;28;20493;-71
2024/02/13 01:25:50;;;;;;;3.83;2.57;;;6.00;99.90;;;;;;4972894;28;20576;-71
2024/02/13 01:28:16;;;;;;;12.07;5.10;;;6.10;99.90;;;;;;4981493;28;20553;-70
2024/02/13 01:30:44;;;;;;;7.83;3.50;;;6.10;99.90;;;;;;4976594;28;20461;-70
2024/02/13 01:33:11;;;;;;;18.47;5.10;;;6.00;99.90;;;;;;4975523;28;20577;-71
2024/02/13 01:35:42;;;;;;;6.30;4.83;;;6.00;99.90;;;;;;4970994;28;20850;-71
2024/02/13 01:38:09;;;;;;;5.03;3.67;;;6.00;99.90;;;;;;4976180;28;20451;-71
2024/02/13 01:40:36;;;;;;;9.63;6.10;;;5.80;99.90;;;;;;4977827;28;20569;-71
2024/02/13 01:43:04;;;;;;;12.10;6.03;;;5.80;99.90;;;;;;4972709;28;20518;-71
2024/02/13 01:45:31;;;;;;;10.97;4.57;;;5.90;99.90;;;;;;4968746;28;20880;-71
2024/02/13 01:48:01;;;;;;;14.90;4.50;;;5.80;99.90;;;;;;4974739;28;20942;-71
2024/02/13 01:50:28;;;;;;;8.47;4.63;;;5.80;99.90;;;;;;4977285;28;20895;-71
2024/02/13 01:52:54;;;;;;;30.63;6.07;;;5.60;99.90;;;;;;4977909;28;20900;-71
2024/02/13 01:55:23;;;;;;;8.17;5.83;;;5.50;99.90;;;;;;4972254;28;20472;-71
2024/02/13 01:57:52;;;;;;;10.20;4.27;;;5.60;99.90;;;;;;4980248;28;20436;-71
2024/02/13 02:00:21;;;;;;;15.63;7.50;;;5.70;99.90;;;;;;4978558;28;20469;-71
2024/02/13 02:02:50;;;;;;;5.23;3.97;;;5.70;99.90;;;;;;4982461;28;20495;-71
2024/02/13 02:05:16;;;;;;;6.60;4.20;;;5.70;99.90;;;;;;4972027;28;20473;-71
2024/02/13 02:07:43;;;;;;;7.83;4.53;;;5.80;99.90;;;;;;4975160;28;20529;-71
2024/02/13 02:10:10;;;;;;;8.17;5.93;;;5.70;99.90;;;;;;4986411;28;20443;-72
2024/02/13 02:12:39;;;;;;;12.43;6.50;;;5.70;99.90;;;;;;4978592;28;20466;-72
2024/02/13 02:15:09;;;;;;;10.60;5.77;;;5.50;99.90;;;;;;4981826;28;20487;-71
2024/02/13 02:17:39;;;;;;;8.93;4.90;;;5.50;99.90;;;;;;4971420;28;20489;-71
2024/02/13 02:20:08;;;;;;;21.33;4.83;;;5.60;99.90;;;;;;4971543;28;20481;-71
2024/02/13 02:22:34;;;;;;;12.47;5.80;;;5.50;99.90;;;;;;4981906;28;20543;-70
2024/02/13 02:25:01;;;;;;;6.47;4.60;;;5.50;99.90;;;;;;4973026;28;25762;-70
2024/02/13 02:27:29;;;;;;;14.57;4.70;;;5.50;99.90;;;;;;4958649;28;20833;-71
2024/02/13 02:29:56;;;;;;;5.87;3.97;;;5.50;99.90;;;;;;4968646;28;20459;-71
2024/02/13 02:32:23;;;;;;;10.67;5.70;;;5.50;99.90;;;;;;4977336;28;20428;-70
2024/02/13 02:34:51;;;;;;;6.63;5.47;;;5.40;99.90;;;;;;4969678;28;20526;-71
2024/02/13 02:37:19;;;;;;;11.30;4.60;;;5.40;99.90;;;;;;4968112;28;20575;-71
2024/02/13 02:39:46;;;;;;;11.57;5.90;;;5.40;99.90;;;;;;4978053;28;20945;-70
2024/02/13 02:42:13;;;;;;;10.50;6.30;;;5.30;99.90;;;;;;4993681;23;20507;-68
2024/02/13 02:44:41;;;;;;;12.53;5.50;;;5.30;99.90;;;;;;4995689;28;20539;-66
2024/02/13 02:47:08;;;;;;;11.83;6.53;;;5.30;99.90;;;;;;4981676;28;20478;-67
2024/02/13 02:49:37;;;;;;;12.57;6.63;;;5.20;99.90;;;;;;4968032;28;20473;-67
2024/02/13 02:52:07;;;;;;;21.00;6.13;;;5.10;99.90;;;;;;4973861;28;20521;-67
2024/02/13 02:54:35;;;;;;;14.03;5.67;;;5.20;99.90;;;;;;4981018;28;20432;-67
2024/02/13 02:57:04;;;;;;;7.80;5.10;;;5.30;99.90;;;;;;4977187;28;21053;-67
2024/02/13 02:59:30;;;;;;;12.27;6.07;;;5.30;99.90;;;;;;4971149;28;20502;-67
2024/02/13 03:01:59;;;;;;;15.27;6.30;;;5.20;99.90;;;;;;4974090;28;20520;-67
2024/02/13 03:04:26;;;;;;;7.70;5.40;;;5.10;99.90;;;;;;4968313;28;20465;-67
2024/02/13 03:06:53;;;;;;;10.10;5.37;;;5.20;99.90;;;;;;4979243;28;20475;-67
2024/02/13 03:09:20;;;;;;;10.70;6.07;;;5.40;99.90;;;;;;4978372;28;20485;-67
2024/02/13 03:11:47;;;;;;;11.73;5.43;;;5.30;99.90;;;;;;4965482;28;20477;-67
2024/02/13 03:14:14;;;;;;;26.03;6.40;;;5.30;99.90;;;;;;4976898;28;20512;-67
2024/02/13 03:16:41;;;;;;;9.67;5.20;;;5.40;99.90;;;;;;4966026;28;20489;-67
2024/02/13 03:19:09;;;;;;;17.37;5.70;;;5.20;99.90;;;;;;4965371;28;20814;-67
2024/02/13 03:21:36;;;;;;;31.63;7.37;;;5.20;99.90;;;;;;4967702;28;20437;-68
2024/02/13 03:24:03;;;;;;;9.90;5.50;;;5.40;99.90;;;;;;4960430;28;20533;-68
2024/02/13 03:26:31;;;;;;;16.50;8.87;;;5.40;99.90;;;;;;4957626;28;20537;-67
2024/02/13 03:28:57;;;;;;;13.77;5.20;;;5.40;99.90;;;;;;4962166;28;20554;-68
2024/02/13 03:31:24;;;;;;;7.20;5.33;;;5.50;99.90;;;;;;4963512;28;20482;-68
2024/02/13 03:33:51;;;;;;;10.47;4.60;;;5.50;99.90;;;;;;4964748;28;20553;-67
2024/02/13 03:36:19;;;;;;;18.50;6.20;;;5.40;99.90;;;;;;4957695;28;21139;-67
2024/02/13 03:38:48;;;;;;;10.53;6.07;;;5.30;99.90;;;;;;4951891;28;20473;-68
2024/02/13 03:41:14;;;;;;;9.93;5.93;;;5.40;99.90;;;;;;4968199;28;20473;-67
2024/02/13 03:43:43;;;;;;;12.33;7.20;;;5.30;99.90;;;;;;4971179;28;20486;-67
2024/02/13 03:46:10;;;;;;;12.27;7.37;;;5.20;99.90;;;;;;4960759;28;20461;-67
2024/02/13 03:48:37;;;;;;;9.50;5.90;;;5.20;99.90;;;;;;4965816;28;20841;-67
2024/02/13 03:51:04;;;;;;;8.53;5.33;;;5.10;99.90;;;;;;4972570;28;20513;-66
2024/02/13 03:53:34;;;;;;;13.27;6.40;;;5.10;99.90;;;;;;4966177;28;20473;-67
2024/02/13 03:56:01;;;;;;;12.10;6.00;;;5.10;99.90;;;;;;4959914;28;20461;-67
2024/02/13 03:58:29;;;;;;;11.80;5.60;;;5.10;99.90;;;;;;4965542;28;20528;-67
2024/02/13 04:00:56;;;;;;;6.67;5.60;;;5.10;99.90;;;;;;4965915;28;20448;-67
2024/02/13 04:03:26;;;;;;;7.03;4.97;;;5.10;99.90;;;;;;4964783;28;20525;-66
2024/02/13 04:05:53;;;;;;;19.00;6.67;;;5.10;99.90;;;;;;4968030;28;20473;-67
2024/02/13 04:08:20;;;;;;;7.00;5.00;;;5.10;99.90;;;;;;4968115;28;20466;-67
2024/02/13 04:10:49;;;;;;;12.80;7.00;;;5.20;99.90;;;;;;4973097;28;20439;-67
2024/02/13 04:13:16;;;;;;;9.13;7.03;;;5.20;99.90;;;;;;4971000;28;20466;-67
2024/02/13 04:15:43;;;;;;;16.27;4.93;;;5.10;99.90;;;;;;4969286;28;20461;-67
2024/02/13 04:18:10;;;;;;;11.07;4.97;;;5.20;99.90;;;;;;4965409;28;20492;-67
2024/02/13 04:20:38;;;;;;;6.70;4.70;;;5.30;99.90;;;;;;4956751;28;20465;-67
2024/02/13 04:23:06;;;;;;;12.73;6.70;;;5.30;99.90;;;;;;4964292;28;20500;-67
2024/02/13 04:25:33;;;;;;;16.43;5.30;;;5.30;99.90;;;;;;4966293;28;21281;-68
2024/02/13 04:28:01;;;;;;;10.77;5.47;;;5.20;99.90;;;;;;4960295;28;20589;-68
2024/02/13 04:30:28;;;;;;;8.23;6.13;;;5.30;99.90;;;;;;4964719;28;20439;-67
2024/02/13 04:32:55;;;;;;;4.40;2.50;;;5.40;99.90;;;;;;4969802;28;20807;-68
2024/02/13 04:35:22;;;;;;;10.70;4.93;;;5.50;99.90;;;;;;4967005;28;21409;-67
2024/02/13 04:37:50;;;;;;;12.87;5.93;;;5.40;99.90;;;;;;4967149;28;20977;-68
2024/02/13 04:40:18;;;;;;;5.83;4.80;;;5.40;99.90;;;;;;4974023;28;21519;-68
2024/02/13 04:42:45;;;;;;;21.73;6.67;;;5.30;99.90;;;;;;4966836;28;21378;-68
2024/02/13 04:45:14;;;;;;;7.17;6.47;;;5.30;99.90;;;;;;4971946;28;20497;-68
2024/02/13 04:47:40;;;;;;;8.80;5.80;;;5.30;99.90;;;;;;4975404;28;20445;-68
2024/02/13 04:50:08;;;;;;;8.27;4.90;;;5.30;99.90;;;;;;4972642;28;20622;-67
2024/02/13 04:52:35;;;;;;;9.63;6.43;;;5.40;99.90;;;;;;4976629;28;20536;-67
2024/02/13 04:55:03;;;;;;;5.50;4.23;;;5.40;99.90;;;;;;4964885;28;20466;-67
2024/02/13 04:57:30;;;;;;;9.30;7.63;;;5.40;99.90;;;;;;4966966;28;22665;-67
2024/02/13 04:59:57;;;;;;;14.00;6.60;;;5.30;99.90;;;;;;4968924;28;20989;-67
2024/02/13 05:02:26;;;;;;;15.30;7.20;;;5.40;99.90;;;;;;4975631;28;20467;-67
2024/02/13 05:07:37;;;;;;;14.10;7.00;;;5.40;99.90;;;;;;4982466;28;20455;-68
2024/02/13 05:10:04;;;;;;;11.97;5.30;;;5.40;99.90;;;;;;4977790;28;20475;-67
2024/02/13 05:12:31;;;;;;;9.80;6.83;;;5.30;99.90;;;;;;4978098;28;20435;-68
2024/02/13 05:14:59;;;;;;;9.10;5.53;;;5.30;99.90;;;;;;4972405;28;20440;-68
2024/02/13 05:17:27;;;;;;;14.60;4.40;;;5.30;99.90;;;;;;4978764;28;21054;-68
2024/02/13 05:19:54;;;;;;;14.13;7.40;;;5.30;99.90;;;;;;4980928;28;20737;-69
2024/02/13 05:22:21;;;;;;;7.90;4.20;;;5.20;99.90;;;;;;4979149;28;20476;-68
2024/02/13 05:24:48;;;;;;;6.47;4.90;;;5.30;99.90;;;;;;4975629;28;20836;-68
2024/02/13 05:27:15;;;;;;;11.27;7.40;;;5.30;99.90;;;;;;4974598;28;20477;-69
2024/02/13 05:29:43;;;;;;;12.13;6.27;;;5.20;99.90;;;;;;4979022;28;20458;-69
2024/02/13 05:32:10;;;;;;;23.23;7.17;;;5.10;99.90;;;;;;4970552;28;20587;-67
2024/02/13 05:34:38;;;;;;;8.27;6.80;;;5.10;99.90;;;;;;4983947;28;20536;-67
2024/02/13 05:37:06;;;;;;;12.67;7.50;;;5.20;99.90;;;;;;4979465;28;20452;-67
2024/02/13 05:39:33;;;;;;;11.43;6.03;;;5.10;99.90;;;;;;4972341;28;20448;-67
2024/02/13 05:41:59;;;;;;;24.43;10.37;;;5.00;99.90;;;;;;4979594;28;20497;-68
2024/02/13 05:44:26;;;;;;;21.50;7.90;;;5.10;99.90;;;;;;4975493;28;20707;-67
2024/02/13 05:46:55;;;;;;;11.80;6.57;;;5.00;99.90;;;;;;4976045;28;21412;-68
2024/02/13 05:49:21;;;;;;;10.53;5.83;;;5.10;99.90;;;;;;4982833;28;20825;-67
2024/02/13 05:51:50;;;;;;;11.37;6.30;;;5.10;99.90;;;;;;4974137;28;21051;-67
2024/02/13 05:54:16;;;;;;;11.47;6.57;;;5.10;99.90;;;;;;4975002;28;20465;-68
2024/02/13 05:56:43;;;;;;;8.40;6.87;;;5.10;99.90;;;;;;4981824;28;20958;-68
2024/02/13 05:59:10;;;;;;;10.20;6.37;;;5.10;99.90;;;;;;4971805;28;20474;-68
2024/02/13 06:01:36;;;;;;;7.77;4.10;;;5.10;99.90;;;;;;4975424;28;20440;-68
2024/02/13 06:04:05;;;;;;;6.83;5.17;;;5.00;99.90;;;;;;4983502;28;20488;-67
2024/02/13 06:06:34;;;;;;;9.90;5.20;;;5.00;99.90;;;;;;4974870;28;21014;-67
2024/02/13 06:09:02;;;;;;;13.13;7.60;;;5.00;99.90;;;;;;4975822;28;20553;-68
2024/02/13 06:11:28;;;;;;;4.47;3.87;;;5.00;99.90;;;;;;4979610;28;20809;-69
2024/02/13 06:13:55;;;;;;;12.07;5.90;;;5.00;99.90;;;;;;4976300;28;20840;-68
2024/02/13 06:16:22;;;;;;;13.03;6.90;;;5.10;99.90;;;;;;4972509;28;20486;-68
2024/02/13 06:18:49;;;;;;;9.60;7.40;;;5.10;99.90;;;;;;4981420;28;20440;-67
2024/02/13 06:21:18;;;;;;;10.20;5.90;;;5.10;99.90;;;;;;4974143;28;20466;-68
2024/02/13 06:23:45;;;;;;;10.10;4.57;;;5.10;99.90;;;;;;4975274;28;21005;-68
2024/02/13 06:26:13;;;;;;;9.00;4.37;;;5.10;99.90;;;;;;4976851;28;20483;-66
2024/02/13 06:28:41;;;;;;;15.73;8.03;;;5.10;99.90;;;;;;4976676;28;20557;-67
2024/02/13 06:31:07;;;;;;;3.57;2.30;;;5.20;99.90;;;;;;4982167;28;20468;-68
2024/02/13 06:33:34;;;;;;;8.03;6.37;;;5.10;99.90;;;;;;4977157;28;20436;-67
2024/02/13 06:36:01;;;;;;;3.17;2.43;;;5.10;99.90;;;;;;4980087;28;20490;-67
2024/02/13 06:38:27;;;;;;;9.80;4.70;;;5.10;99.90;;;;;;4977693;28;20470;-67
2024/02/13 06:40:55;;;;;;;4.53;4.10;;;5.20;99.90;;;;;;4982827;28;20455;-68
2024/02/13 06:43:23;;;;;;;16.57;6.07;;;5.10;99.90;;;;;;4981286;28;21131;-68
2024/02/13 06:45:50;;;;;;;13.00;6.10;;;5.20;99.90;;;;;;4983324;28;20575;-68
2024/02/13 06:48:17;;;;;;;7.47;4.80;;;5.20;99.90;;;;;;4979389;28;20829;-67
2024/02/13 06:50:44;;;;;;;8.67;4.60;;;5.20;99.90;;;;;;4981493;28;20469;-67
2024/02/13 06:53:11;;;;;;;7.73;5.37;;;5.10;99.90;;;;;;4978587;28;20466;-67
2024/02/13 06:55:37;;;;;;;8.20;4.47;;;5.10;99.90;;;;;;4980255;28;20852;-68
2024/02/13 06:58:05;;;;;;;9.63;6.30;;;5.00;99.90;;;;;;4975660;28;21226;-68
2024/02/13 07:00:33;;;;;;;7.20;3.77;;;5.10;99.90;;;;;;4979240;28;20483;-68
2024/02/13 07:03:00;;;;;;;5.07;3.67;;;5.10;99.90;;;;;;4981861;28;20481;-67
2024/02/13 07:05:28;;;;;;;7.87;4.60;;;5.10;99.90;;;;;;4980458;28;20943;-68
2024/02/13 07:07:54;;;;;;;7.30;4.30;;;5.10;99.90;;;;;;4977243;28;20466;-67
2024/02/13 07:10:21;;;;;;;8.37;4.10;;;5.00;99.90;;;;;;4973327;28;20470;-68
2024/02/13 07:12:48;;;;;;;11.37;5.50;;;5.20;99.90;;;;;;4972103;28;20469;-68
2024/02/13 07:15:15;;;;;;;7.80;4.33;;;5.20;99.90;;;;;;4977168;28;20833;-68
2024/02/13 07:17:43;;;;;;;5.90;3.80;;;5.20;99.90;;;;;;4984043;28;20462;-68
2024/02/13 07:20:11;;;;;;;11.90;5.13;;;5.30;99.90;;;;;;4971270;28;20448;-68
2024/02/13 07:22:39;;;;;;;6.03;2.60;;;5.20;99.90;;;;;;4978901;28;20553;-68
2024/02/13 07:25:08;;;;;;;9.10;5.23;;;5.30;99.90;;;;;;4982680;28;20555;-67
2024/02/13 07:27:36;;;;;;;8.27;4.43;;;5.40;99.90;;;;;;4970170;28;20523;-67
2024/02/13 07:30:06;;;;;;;7.90;5.30;;;5.50;99.90;;;;;;4973766;28;20528;-67
2024/02/13 07:32:33;;;;;;;8.70;5.10;;;5.60;99.90;;;;;;4972864;28;20509;-68
2024/02/13 07:35:04;;;;;;;14.10;4.83;;;5.90;99.90;;;;;;4976816;28;21213;-67
2024/02/13 07:37:31;;;;;;;12.57;3.97;;;6.10;99.90;;;;;;4981826;28;20478;-67
2024/02/13 07:39:58;;;;;;;3.20;2.90;;;6.20;99.90;;;;;;4973172;28;20458;-68
2024/02/13 07:42:27;;;;;;;7.67;4.27;;;6.40;99.90;;;;;;4977818;28;20468;-67
2024/02/13 07:44:55;;;;;;;5.70;4.03;;;6.60;99.90;;;;;;4975106;28;20493;-67
2024/02/13 07:47:21;;;;;;;10.33;4.50;;;6.50;99.90;;;;;;4981080;28;20488;-67
2024/02/13 07:49:48;;;;;;;3.43;2.20;;;6.50;99.90;;;;;;4977308;28;20462;-67
2024/02/13 07:52:17;;;;;;;5.73;3.00;;;6.40;99.90;;;;;;4979220;28;20525;-67
2024/02/13 07:54:44;;;;;;;5.07;3.87;;;6.40;99.90;;;;;;4983272;28;20455;-67
2024/02/13 07:57:14;;;;;;;5.80;2.20;;;6.40;99.90;;;;;;4978280;28;21008;-67
2024/02/13 07:59:41;;;;;;;6.10;3.40;;;6.50;99.90;;;;;;4974839;28;20475;-66
2024/02/13 08:02:09;;;;;;;4.83;3.57;;;6.70;99.90;;;;;;4979515;28;20439;-67
2024/02/13 08:04:36;;;;;;;4.40;2.80;;;6.70;99.90;;;;;;4978891;28;20956;-67
2024/02/13 08:07:03;;;;;;;3.97;3.27;;;6.70;99.90;;;;;;4982069;28;20494;-67
2024/02/13 08:09:32;;;;;;;4.50;2.17;;;6.70;99.90;;;;;;4978705;28;20468;-68
2024/02/13 08:12:01;;;;;;;4.80;2.70;;;6.70;99.90;;;;;;4979498;28;20517;-67
2024/02/13 08:14:28;;;;;;;13.30;4.40;;;6.60;99.90;;;;;;4977387;28;20466;-67
2024/02/13 08:16:55;;;;;;;7.23;2.97;;;6.70;99.90;;;;;;4978106;28;20847;-67
2024/02/13 08:19:22;;;;;;;4.50;2.57;;;6.80;99.90;;;;;;4974100;28;20976;-67
2024/02/13 08:21:49;;;;;;;5.10;3.00;;;6.70;99.90;;;;;;4975939;28;20565;-67
2024/02/13 08:24:17;;;;;;;9.40;3.30;;;6.80;99.90;;;;;;4975131;28;20481;-67
2024/02/13 08:26:46;;;;;;;3.60;2.63;;;7.10;99.90;;;;;;4975713;28;20486;-67
2024/02/13 08:29:13;;;;;;;3.83;1.70;;;7.30;99.90;;;;;;4967686;28;20454;-68
2024/02/13 08:31:41;;;;;;;2.20;1.97;;;7.60;99.90;;;;;;4977406;28;20496;-68
2024/02/13 08:34:07;;;;;;;3.10;2.43;;;8.10;99.90;;;;;;4982875;28;20458;-68
2024/02/13 08:36:37;;;;;;;2.90;2.60;;;8.80;99.90;;;;;;4970167;28;20490;-68
2024/02/13 08:39:03;;;;;;;3.60;2.23;;;9.20;99.90;;;;;;4976116;28;20968;-68
2024/02/13 08:41:31;;;;;;;2.73;1.97;;;9.70;99.90;;;;;;4973492;28;20900;-68
2024/02/13 08:43:59;;;;;;;3.73;1.57;;;10.20;99.90;;;;;;4987373;23;20481;-70
2024/02/13 08:46:26;;;;;;;2.77;2.27;;;10.80;99.90;;;;;;4960943;28;20474;-70
2024/02/13 08:48:53;;;;;;;6.37;2.40;;;10.90;99.90;;;;;;4961242;28;20466;-70
2024/02/13 08:51:19;;;;;;;6.00;2.10;;;10.80;99.90;;;;;;4964878;28;20467;-70
2024/02/13 08:53:47;;;;;;;2.20;1.87;;;11.40;99.90;;;;;;4974100;28;20457;-70
2024/02/13 08:56:14;;;;;;;2.73;1.70;;;11.20;99.90;;;;;;4967212;28;20487;-70
2024/02/13 08:58:41;;;;;;;2.27;1.60;;;10.80;99.90;;;;;;4960573;28;20496;-70
2024/02/13 09:01:10;;;;;;;4.63;1.60;;;11.20;99.90;;;;;;4958138;28;20468;-70
2024/02/13 09:03:36;;;;;;;1.60;1.10;;;11.40;99.90;;;;;;4969186;28;20471;-71
2024/02/13 09:06:04;;;;;;;3.53;2.07;;;10.70;99.90;;;;;;4965172;28;20505;-70
2024/02/13 09:08:32;;;;;;;2.47;1.63;;;10.00;99.90;;;;;;4967698;28;20590;-70
2024/02/13 09:10:59;;;;;;;3.17;1.57;;;9.90;99.90;;;;;;4961153;28;20463;-70
2024/02/13 09:13:27;;;;;;;1.90;1.70;;;10.50;99.90;;;;;;4958397;28;20884;-70
2024/02/13 09:15:55;;;;;;;2.90;1.50;;;10.90;99.90;;;;;;4959480;28;20470;-70
2024/02/13 09:18:23;;;;;;;2.30;1.10;;;10.70;99.90;;;;;;4963713;28;21223;-70
2024/02/13 09:20:50;;;;;;;2.80;1.30;;;10.20;99.90;;;;;;4959267;28;20487;-70
2024/02/13 09:23:18;;;;;;;7.20;2.43;;;10.20;99.90;;;;;;4962311;28;20534;-70
2024/02/13 09:25:49;;;;;;;2.63;1.83;;;10.10;99.90;;;;;;4965667;28;20526;-70
2024/02/13 09:28:18;;;;;;;3.53;1.50;;;9.80;99.90;;;;;;4959767;28;21020;-70
2024/02/13 09:30:47;;;;;;;10.40;1.60;;;9.50;99.90;;;;;;4968421;28;20992;-71
2024/02/13 09:33:15;;;;;;;10.30;2.00;;;9.30;99.90;;;;;;4959788;28;20517;-70
2024/02/13 09:35:44;;;;;;;1.47;1.30;;;9.20;99.90;;;;;;4964245;28;20483;-71
2024/02/13 09:38:11;;;;;;;3.13;2.10;;;9.10;99.90;;;;;;4965744;28;20467;-70
2024/02/13 09:40:38;;;;;;;5.37;2.30;;;8.90;99.90;;;;;;4962512;28;20612;-71
2024/02/13 09:43:05;;;;;;;2.50;1.30;;;9.00;99.90;;;;;;4968663;28;20785;-70
2024/02/13 09:45:33;;;;;;;2.60;1.47;;;9.20;99.90;;;;;;4963935;28;21011;-71
2024/02/13 09:48:04;;;;;;;4.60;1.37;;;9.70;99.90;;;;;;4959462;28;20485;-71
2024/02/13 09:50:38;;;;;;;1.57;1.23;;;10.50;99.90;;;;;;4962869;28;20851;-71
2024/02/13 09:53:17;;;;;;;3.27;2.03;;;10.80;99.90;;;;;;4958024;28;20555;-71
2024/02/13 09:55:45;;;;;;;5.80;1.93;;;11.20;99.90;;;;;;4958451;28;20486;-73
2024/02/13 09:58:12;;;;;;;4.77;1.23;;;10.90;99.90;;;;;;4951054;28;20550;-71
2024/02/13 10:00:38;;;;;;;5.90;1.60;;;10.50;99.90;;;;;;4960218;28;20486;-70
2024/02/13 10:03:06;;;;;;;2.13;1.57;;;10.80;99.90;;;;;;4959056;28;20976;-70
2024/02/13 10:05:33;;;;;;;2.80;1.67;;;11.10;99.90;;;;;;4963932;28;20494;-70
2024/02/13 10:08:01;;;;;;;6.83;1.90;;;11.30;99.90;;;;;;4962256;28;20471;-70
2024/02/13 10:10:30;;;;;;;1.63;1.43;;;11.00;99.90;;;;;;4960457;28;20525;-70
2024/02/13 10:12:59;;;;;;;2.20;1.33;;;10.70;99.90;;;;;;4968529;28;20524;-71
2024/02/13 10:15:38;;;;;;;3.97;1.80;;;11.20;99.90;;;;;;4966512;28;20981;-71
2024/02/13 10:18:08;;;;;;;2.37;1.47;;;11.80;99.90;;;;;;4964482;28;20558;-71
2024/02/13 10:20:37;;;;;;;2.97;2.07;;;12.10;99.90;;;;;;4959921;28;20464;-71
2024/02/13 10:23:04;;;;;;;2.07;1.17;;;13.20;99.90;;;;;;4968255;28;20557;-71
2024/02/13 10:25:33;;;;;;;1.10;0.80;;;13.90;99.90;;;;;;4959885;28;20498;-71
2024/02/13 10:28:01;;;;;;;3.17;1.63;;;13.50;99.90;;;;;;4967944;28;20515;-70
2024/02/13 10:30:29;;;;;;;10.40;1.57;;;12.20;99.90;;;;;;4958660;28;20499;-71
2024/02/13 10:32:59;;;;;;;2.20;1.40;;;12.30;99.90;;;;;;4966793;28;20483;-70
2024/02/13 10:35:29;;;;;;;3.30;1.40;;;12.80;99.90;;;;;;4964821;28;20459;-70
2024/02/13 10:37:57;;;;;;;5.27;1.63;;;13.10;99.90;;;;;;4965596;28;20477;-70
2024/02/13 10:40:26;;;;;;;8.83;2.87;;;13.50;99.90;;;;;;4957561;28;20604;-70
2024/02/13 10:42:54;;;;;;;2.77;1.23;;;13.60;99.90;;;;;;4965629;28;20471;-70
2024/02/13 10:45:24;;;;;;;2.70;2.03;;;14.20;99.90;;;;;;4962963;28;20491;-70
2024/02/13 10:47:54;;;;;;;2.63;1.30;;;14.30;99.90;;;;;;4959928;28;20470;-70
2024/02/13 10:50:21;;;;;;;1.77;1.23;;;14.50;99.90;;;;;;4960726;28;20482;-70
2024/02/13 10:52:54;;;;;;;1.10;1.00;;;13.70;99.90;;;;;;4953722;28;20477;-69
2024/02/13 10:55:22;;;;;;;1.60;1.47;;;13.00;99.90;;;;;;4968177;28;20463;-70
2024/02/13 10:57:51;;;;;;;1.40;1.30;;;12.50;99.90;;;;;;4968627;28;20474;-70
2024/02/13 11:00:20;;;;;;;2.70;1.63;;;12.60;99.90;;;;;;4962957;28;20464;-70
2024/02/13 11:02:51;;;;;;;4.53;1.90;;;13.30;99.90;;;;;;4965443;28;20866;-72
2024/02/13 11:05:19;;;;;;;2.57;1.80;;;13.70;99.90;;;;;;4964135;28;20494;-70
2024/02/13 11:07:47;;;;;;;3.13;1.90;;;14.00;99.90;;;;;;4962288;28;20471;-70
2024/02/13 11:10:14;;;;;;;8.17;2.03;;;13.90;99.90;;;;;;4962031;28;20476;-70
2024/02/13 11:12:44;;;;;;;3.50;1.50;;;15.20;99.90;;;;;;4965460;28;20552;-70
2024/02/13 11:15:15;;;;;;;2.50;1.40;;;15.90;99.90;;;;;;4957556;28;20466;-70
2024/02/13 11:17:48;;;;;;;1.97;1.10;;;15.10;99.90;;;;;;4964752;28;20467;-71
2024/02/13 11:20:15;;;;;;;1.40;1.17;;;13.90;99.90;;;;;;4958003;28;20471;-71
2024/02/13 11:22:52;;;;;;;3.37;1.07;;;13.40;99.90;;;;;;4964049;28;21123;-71
2024/02/13 11:25:25;;;;;;;2.60;1.33;;;13.00;99.90;;;;;;4960317;28;20483;-71
2024/02/13 11:27:57;;;;;;;1.50;1.40;;;13.40;99.90;;;;;;4960686;28;20467;-71
2024/02/13 11:30:24;;;;;;;2.27;1.60;;;13.20;99.90;;;;;;4958065;28;20454;-71
2024/02/13 11:32:58;;;;;;;7.17;2.23;;;13.80;99.90;;;;;;4966448;28;20462;-71
2024/02/13 11:35:30;;;;;;;2.93;1.23;;;13.50;99.90;;;;;;4951790;28;20471;-71
2024/02/13 11:37:57;;;;;;;10.07;1.30;;;13.30;99.90;;;;;;4959285;28;20902;-70
2024/02/13 11:40:24;;;;;;;11.03;1.93;;;13.60;99.90;;;;;;4963876;28;20873;-70
2024/02/13 11:42:51;;;;;;;3.83;1.30;;;14.80;99.90;;;;;;4958373;28;20470;-71
2024/02/13 11:45:22;;;;;;;2.17;1.27;;;15.20;99.90;;;;;;4956634;28;20491;-71
2024/02/13 11:47:49;;;;;;;2.80;1.27;;;14.30;99.90;;;;;;4958734;28;21051;-70
2024/02/13 11:50:18;;;;;;;2.90;1.57;;;13.90;99.90;;;;;;4955260;28;20471;-70
2024/02/13 11:52:46;;;;;;;2.40;1.80;;;14.30;99.90;;;;;;4955580;28;20471;-70
2024/02/13 11:55:13;;;;;;;1.20;0.90;;;14.60;99.90;;;;;;4962065;28;20472;-70
2024/02/13 11:57:44;;;;;;;3.80;1.50;;;15.60;99.90;;;;;;4960641;28;20456;-70
2024/02/13 12:00:18;;;;;;;2.10;1.37;;;15.50;99.90;;;;;;4961898;28;20471;-70
2024/02/13 12:02:47;;;;;;;3.97;1.70;;;15.40;99.90;;;;;;4963247;28;20550;-70
2024/02/13 12:05:15;;;;;;;2.87;2.67;;;14.30;99.90;;;;;;4957682;28;20491;-71
2024/02/13 12:07:43;;;;;;;2.43;1.10;;;13.40;99.90;;;;;;4955454;28;20557;-70
2024/02/13 12:10:12;;;;;;;1.40;1.00;;;13.00;99.90;;;;;;4954083;28;20460;-70
2024/02/13 12:12:40;;;;;;;1.70;1.60;;;13.10;99.90;;;;;;4959654;28;20595;-71
2024/02/13 12:15:10;;;;;;;5.03;1.13;;;12.90;99.90;;;;;;4965906;28;20466;-71
2024/02/13 12:17:38;;;;;;;1.40;1.10;;;12.60;99.90;;;;;;4957132;28;20553;-71
2024/02/13 12:20:12;;;;;;;1.60;1.40;;;12.40;99.90;;;;;;4962540;28;20463;-71
2024/02/13 12:22:40;;;;;;;1.40;1.17;;;12.50;99.90;;;;;;4956827;28;20457;-71
2024/02/13 12:25:08;;;;;;;2.17;1.20;;;12.50;99.90;;;;;;4954489;28;20487;-71
2024/02/13 12:27:35;;;;;;;2.17;1.53;;;12.40;99.90;;;;;;4955202;28;20570;-71
2024/02/13 12:30:03;;;;;;;1.20;0.93;;;12.80;99.90;;;;;;4959777;28;20480;-71
2024/02/13 12:32:33;;;;;;;2.10;1.73;;;14.00;99.90;;;;;;4957249;28;20465;-71
2024/02/13 12:35:10;;;;;;;16.73;1.53;;;14.50;99.90;;;;;;4962540;28;20447;-71
2024/02/13 12:37:40;;;;;;;2.70;1.50;;;14.70;99.90;;;;;;4958966;28;20965;-71
2024/02/13 12:40:16;;;;;;;2.47;1.10;;;14.10;99.90;;;;;;4954966;28;20922;-71
2024/02/13 12:42:43;;;;;;;2.30;1.37;;;13.80;99.90;;;;;;4960573;28;20846;-71
2024/02/13 12:45:11;;;;;;;4.53;1.73;;;13.30;99.90;;;;;;4959899;28;20499;-70
2024/02/13 12:47:38;;;;;;;1.60;1.20;;;12.80;99.90;;;;;;4958041;28;20459;-71
2024/02/13 12:50:07;;;;;;;2.97;1.13;;;12.20;99.90;;;;;;4961489;28;20477;-70
2024/02/13 12:52:34;;;;;;;1.60;0.90;;;11.70;99.90;;;;;;4961209;28;20463;-71
2024/02/13 12:55:01;;;;;;;1.73;1.63;;;11.70;99.90;;;;;;4963884;28;20473;-71
2024/02/13 12:57:30;;;;;;;12.33;1.10;;;11.80;99.90;;;;;;4962234;28;21012;-70